Delray Beach, FL

8:10 AM EDT on June 03, 2015 (GMT -0400)
Delray Beach | | Change Station
CLOSE
Current Station
Personal Weather Station
Location: Delray Beach, FL
Elevation: 30 ft
Nearby Weather Stations

Elev 30 ft 26.47 °N, 80.09 °W | Updated 9 seconds ago

Overcast
Overcast
72.5 °F
Feels Like 72.5 °F
N
1.7
Wind Variable Wind from WNW
Gusts 3.2 mph

Today
High -- | Low -- °F
--% Chance of Precip.
Yesterday
High -- | Low -- °F
Precip. -- in
6:27 AM 8:09 PM
Full, 99% visible
Pressure 29.93 in
Visibility 10.0 miles
Clouds Scattered Clouds 6000 ft
Overcast 10000 ft
Dew Point 72 °F
Humidity 97%
Rainfall 0.46 in
Snow Depth Not available.
UV 0 out of 12
Pollen .50 out of 12
Air Quality Not available.
Flu Activity Sporadic
METAR KPMP 031053Z 33005KT 10SM SCT060 OVC100 23/22 A2992 RMK AO2 SLP134 T02280217

More Conditions Fewer Conditions

Pressure 29.93 in
Visibility 10.0 miles
Clouds Scattered Clouds 6000 ft
Overcast 10000 ft
Dew Point 72 °F
Humidity 97%
Rainfall 0.46 in
Snow Depth Not available.
UV 0 out of 12
Pollen .50 out of 12
Air Quality Not available.
Flu Activity Sporadic
METAR KPMP 031053Z 33005KT 10SM SCT060 OVC100 23/22 A2992 RMK AO2 SLP134 T02280217

More Conditions Fewer Conditions

10-Day Weather Forecast

×

Almanac

Astronomy

Jun. 03, 2015 Rise Set
Actual Time
Civil Twilight
Nautical Twilight
Astronomical Twilight
Moon
Length of Visible Light
Length of Day
Tomorrow will be .
, % of the Moon is Illuminated

Today's Extremes

State Highs State Lows

Community

WunderPhotos

Upload Photos

1,826,205 photos uploaded!

WunderBlogs® & News

Nearby

Air Quality

  Air Quality AQ Index Pollutant
Not available.

Snow Depth

Station Depth Elevation

Earthquake Activity

City Distance Mag. Time & Date
Minimum magnitude displayed is 2.5.

Coastal Water Temperatures

Place Temperature

Stations

Nearby Weather Stations

Station Location Temp. Windchill Dew Point Humidity Wind Precip. Elev Updated Type